createdAt,value
2022-09-09T00:03:56.589Z,73.66
2022-09-09T00:09:22.665Z,74.17
2022-09-09T00:14:33.563Z,73.94
2022-09-09T00:19:46.910Z,74.43
2022-09-09T00:24:57.625Z,74.51
2022-09-09T00:30:23.724Z,74.52
2022-09-09T00:35:30.089Z,74.37
2022-09-09T00:40:35.243Z,74.27
2022-09-09T00:45:43.631Z,74.62
2022-09-09T00:50:59.585Z,74.71
2022-09-09T00:56:14.263Z,74.65
2022-09-09T01:01:16.508Z,74.39
2022-09-09T01:06:30.008Z,74.49
2022-09-09T01:11:36.266Z,74.76
2022-09-09T01:16:39.452Z,74.45
2022-09-09T01:21:58.420Z,74.91
2022-09-09T01:27:04.035Z,74.37
2022-09-09T01:32:42.619Z,74.88
2022-09-09T01:37:46.508Z,74.30
2022-09-09T01:42:48.827Z,74.30
2022-09-09T01:47:52.215Z,74.23
2022-09-09T01:53:17.182Z,74.18
2022-09-09T01:58:26.328Z,74.47
2022-09-09T02:03:34.909Z,74.39
2022-09-09T02:08:53.572Z,74.46
2022-09-09T02:13:59.360Z,74.13
2022-09-09T02:19:15.775Z,74.55
2022-09-09T02:24:34.389Z,74.23
2022-09-09T02:29:55.362Z,74.13
2022-09-09T02:35:14.529Z,74.28
2022-09-09T02:40:18.341Z,74.08
2022-09-09T02:45:55.149Z,74.26
2022-09-09T02:51:04.106Z,74.01
2022-09-09T02:56:15.970Z,74.08
2022-09-09T03:01:41.229Z,74.06
2022-09-09T03:06:45.647Z,73.96
2022-09-09T03:11:56.224Z,73.87
2022-09-09T03:17:01.987Z,73.90
2022-09-09T03:22:07.683Z,73.78
2022-09-09T03:27:12.327Z,73.95
2022-09-09T03:32:18.715Z,73.94
2022-09-09T03:37:21.318Z,74.01
2022-09-09T03:42:25.683Z,74.00
2022-09-09T03:47:31.277Z,74.22
2022-09-09T03:52:40.390Z,74.41
2022-09-09T03:57:44.815Z,74.23
2022-09-09T04:02:48.544Z,74.52
2022-09-09T04:07:52.762Z,74.95
2022-09-09T04:12:58.085Z,75.11
2022-09-09T04:18:00.355Z,75.32
2022-09-09T04:23:02.900Z,75.64
2022-09-09T04:28:05.125Z,75.94
2022-09-09T04:33:08.219Z,75.88
2022-09-09T04:38:10.595Z,75.91
2022-09-09T04:43:14.562Z,76.11
2022-09-09T04:48:19.265Z,76.27
2022-09-09T04:53:22.023Z,76.16
2022-09-09T04:58:24.835Z,76.07
2022-09-09T05:03:27.839Z,75.88
2022-09-09T05:08:30.378Z,75.57
2022-09-09T05:13:33.292Z,75.46
2022-09-09T05:18:36.062Z,75.05
2022-09-09T05:23:38.791Z,74.96
2022-09-09T05:28:41.500Z,74.77
2022-09-09T05:33:47.122Z,74.72
2022-09-09T05:38:51.129Z,74.52
2022-09-09T05:43:54.486Z,74.31
2022-09-09T05:48:59.093Z,74.10
2022-09-09T05:54:05.296Z,74.05
2022-09-09T05:59:13.752Z,73.98
2022-09-09T06:04:19.269Z,73.40
2022-09-09T06:09:22.111Z,73.17
2022-09-09T06:14:26.670Z,72.95
2022-09-09T06:19:29.733Z,72.60
2022-09-09T06:24:34.155Z,72.29
2022-09-09T06:29:38.117Z,71.72
2022-09-09T06:34:41.236Z,71.24
2022-09-09T06:39:44.699Z,71.26
2022-09-09T06:44:47.273Z,71.02
2022-09-09T06:49:58.013Z,70.74
2022-09-09T06:55:00.759Z,70.32
2022-09-09T07:00:05.457Z,69.32
2022-09-09T07:05:09.361Z,68.60
2022-09-09T07:10:11.886Z,68.73
2022-09-09T07:15:15.291Z,67.83
2022-09-09T07:20:21.399Z,67.29
2022-09-09T07:25:23.900Z,66.20
2022-09-09T07:30:27.892Z,65.45
2022-09-09T07:35:31.314Z,64.93
2022-09-09T07:40:35.130Z,64.27
2022-09-09T07:45:37.985Z,63.88
2022-09-09T07:50:40.637Z,63.75
2022-09-09T07:55:44.823Z,63.73
2022-09-09T08:00:47.127Z,63.82
2022-09-09T08:05:49.453Z,63.49
2022-09-09T08:10:53.449Z,62.95
2022-09-09T08:15:56.833Z,62.82
2022-09-09T08:20:59.222Z,62.69
2022-09-09T08:26:13.080Z,61.26
2022-09-09T08:36:30.371Z,60.16
2022-09-09T08:41:47.916Z,60.59
2022-09-09T08:47:05.379Z,59.63
2022-09-09T08:52:17.278Z,60.71
2022-09-09T08:57:27.952Z,59.40
2022-09-09T09:02:59.843Z,58.87
2022-09-09T09:08:39.265Z,59.19
2022-09-09T09:13:56.837Z,59.49
2022-09-09T09:19:00.499Z,60.49
2022-09-09T09:24:11.589Z,60.30
2022-09-09T09:29:19.221Z,60.62
2022-09-09T09:34:21.767Z,60.35
2022-09-09T09:44:52.714Z,59.42
2022-09-09T09:50:02.346Z,58.93
2022-09-09T09:55:15.235Z,57.78
2022-09-09T10:00:24.078Z,58.62
2022-09-09T10:05:38.004Z,59.37
2022-09-09T10:11:08.401Z,58.27
2022-09-09T10:16:32.849Z,58.37
2022-09-09T10:21:53.661Z,58.12
2022-09-09T10:27:30.086Z,57.90
2022-09-09T10:32:57.066Z,56.91
2022-09-09T10:38:19.669Z,57.07
2022-09-09T10:44:00.592Z,57.23
2022-09-09T10:49:23.217Z,57.63
2022-09-09T10:54:58.616Z,56.86
2022-09-09T11:00:24.640Z,57.29
2022-09-09T11:05:42.295Z,56.84
2022-09-09T11:10:56.357Z,56.61
2022-09-09T11:16:06.985Z,55.63
2022-09-09T11:21:38.400Z,55.53
2022-09-09T11:26:46.428Z,53.24
2022-09-09T11:32:05.049Z,52.19
2022-09-09T11:37:40.660Z,51.69
2022-09-09T11:42:44.346Z,52.87
2022-09-09T11:47:54.100Z,53.23
2022-09-09T11:53:15.277Z,53.36
2022-09-09T11:58:19.585Z,54.29
2022-09-09T12:03:43.347Z,54.64
2022-09-09T12:08:50.297Z,54.64
2022-09-09T12:13:59.495Z,53.59
2022-09-09T12:19:26.440Z,51.74
2022-09-09T12:24:39.686Z,51.07
2022-09-09T12:30:06.200Z,51.83
2022-09-09T12:35:27.694Z,52.81
2022-09-09T12:40:36.499Z,51.79
2022-09-09T12:45:42.280Z,51.31
2022-09-09T12:50:53.781Z,51.25
2022-09-09T12:55:59.267Z,51.98
2022-09-09T13:01:04.438Z,51.22
2022-09-09T13:06:18.339Z,51.35
2022-09-09T13:11:44.548Z,50.25
2022-09-09T13:17:07.690Z,50.18
2022-09-09T13:22:26.184Z,49.55
2022-09-09T13:27:35.489Z,50.49
2022-09-09T13:32:39.236Z,50.41
2022-09-09T13:37:42.471Z,50.51
2022-09-09T13:42:45.947Z,50.60
2022-09-09T13:47:53.365Z,50.45
2022-09-09T13:53:00.491Z,49.30
2022-09-09T13:58:06.273Z,49.18
2022-09-09T14:03:09.269Z,49.68
2022-09-09T14:08:18.088Z,48.67
2022-09-09T14:13:22.309Z,50.69
2022-09-09T14:18:26.539Z,50.92
2022-09-09T14:23:28.880Z,50.96
2022-09-09T14:33:54.021Z,50.40
2022-09-09T14:38:56.221Z,50.65
2022-09-09T14:43:58.449Z,51.03
2022-09-09T14:49:00.977Z,50.93
2022-09-09T14:54:03.700Z,50.73
2022-09-09T14:59:05.972Z,50.85
2022-09-09T15:04:08.939Z,50.76
2022-09-09T15:09:14.328Z,51.24
2022-09-09T15:14:16.768Z,51.70
2022-09-09T15:19:18.966Z,52.28
2022-09-09T15:24:23.234Z,52.98
2022-09-09T15:29:26.257Z,53.59
2022-09-09T15:34:29.980Z,53.66
2022-09-09T15:39:39.832Z,54.29
2022-09-09T15:44:43.577Z,55.10
2022-09-09T15:49:45.990Z,55.35
2022-09-09T15:54:48.191Z,56.00
2022-09-09T15:59:50.464Z,55.97
2022-09-09T16:04:52.985Z,56.47
2022-09-09T16:09:55.593Z,57.35
2022-09-09T16:15:00.870Z,57.41
2022-09-09T16:20:03.886Z,57.49
2022-09-09T16:25:06.910Z,57.95
2022-09-09T16:30:10.038Z,58.75
2022-09-09T16:35:12.821Z,59.27
2022-09-09T16:40:16.778Z,59.08
2022-09-09T16:45:22.743Z,59.92
2022-09-09T16:50:25.192Z,60.16
2022-09-09T16:55:27.918Z,60.29
2022-09-09T17:00:30.166Z,60.31
2022-09-09T17:05:33.950Z,60.85
2022-09-09T17:10:41.865Z,61.89
2022-09-09T17:15:44.333Z,61.35
2022-09-09T17:20:47.451Z,61.40
2022-09-09T17:25:59.226Z,61.89
2022-09-09T17:31:03.030Z,61.95
2022-09-09T17:36:32.954Z,62.88
2022-09-09T17:41:37.774Z,62.65
2022-09-09T17:46:41.897Z,62.58
2022-09-09T17:51:45.995Z,62.64
2022-09-09T17:56:49.373Z,63.06
2022-09-09T18:01:51.957Z,62.88
2022-09-09T18:06:54.760Z,63.11
2022-09-09T18:11:58.942Z,63.60
2022-09-09T18:17:03.001Z,63.61
2022-09-09T18:22:07.057Z,63.67
2022-09-09T18:27:10.660Z,64.10
2022-09-09T18:32:17.599Z,64.22
2022-09-09T18:37:24.618Z,64.27
2022-09-09T18:42:27.881Z,64.42
2022-09-09T18:47:32.879Z,64.71
2022-09-09T18:52:35.372Z,64.84
2022-09-09T18:57:39.032Z,65.24
2022-09-09T19:02:43.174Z,65.15
2022-09-09T19:07:45.463Z,65.47
2022-09-09T19:12:47.839Z,65.53
2022-09-09T19:17:51.320Z,65.79
2022-09-09T19:22:58.727Z,66.55
2022-09-09T19:28:01.983Z,65.95
2022-09-09T19:33:05.637Z,66.27
2022-09-09T19:38:11.841Z,66.35
2022-09-09T19:43:14.164Z,66.52
2022-09-09T19:48:17.241Z,66.88
2022-09-09T19:53:21.805Z,66.84
2022-09-09T19:58:24.110Z,66.91
2022-09-09T20:03:26.399Z,67.07
2022-09-09T20:08:28.663Z,67.26
2022-09-09T20:13:32.469Z,67.18
2022-09-09T20:18:37.281Z,67.53
2022-09-09T20:23:40.385Z,67.55
2022-09-09T20:28:42.743Z,67.30
2022-09-09T20:33:45.846Z,67.63
2022-09-09T20:38:58.056Z,68.07
2022-09-09T20:44:05.980Z,67.76
2022-09-09T20:49:12.764Z,67.53
2022-09-09T20:54:25.139Z,68.45
2022-09-09T20:59:29.868Z,67.79
2022-09-09T21:04:32.118Z,67.82
2022-09-09T21:09:34.285Z,68.04
2022-09-09T21:14:36.495Z,67.98
2022-09-09T21:19:38.652Z,67.97
2022-09-09T21:24:41.181Z,68.11
2022-09-09T21:29:43.381Z,68.19
2022-09-09T21:34:48.585Z,68.55
2022-09-09T21:39:50.958Z,68.23
2022-09-09T21:44:53.096Z,68.17
2022-09-09T21:49:55.258Z,68.58
2022-09-09T21:54:58.154Z,68.53
2022-09-09T22:00:00.457Z,68.48
2022-09-09T22:05:02.758Z,68.57
2022-09-09T22:10:05.756Z,68.42
2022-09-09T22:15:08.172Z,68.53
2022-09-09T22:20:12.385Z,68.48
2022-09-09T22:25:14.959Z,68.51
2022-09-09T22:30:17.280Z,68.48
2022-09-09T22:35:19.554Z,68.73
2022-09-09T22:40:22.425Z,68.65
2022-09-09T22:45:24.723Z,68.60
2022-09-09T22:50:28.161Z,68.85
2022-09-09T22:55:30.817Z,68.92
2022-09-09T23:00:32.981Z,68.95
2022-09-09T23:05:38.725Z,69.06
2022-09-09T23:10:43.313Z,69.25
2022-09-09T23:15:48.043Z,69.34
2022-09-09T23:21:00.735Z,69.80
2022-09-09T23:26:05.523Z,69.31
2022-09-09T23:31:13.236Z,69.49
2022-09-09T23:36:17.285Z,69.44
2022-09-09T23:41:21.281Z,69.43
2022-09-09T23:46:28.814Z,69.38
2022-09-09T23:51:32.305Z,69.54
2022-09-09T23:56:37.964Z,69.68
